createdAt,value
2022-10-10T00:00:46.640Z,100342.69
2022-10-10T00:01:48.791Z,100336.72
2022-10-10T00:02:55.834Z,100343.03
2022-10-10T00:03:58.352Z,100344.22
2022-10-10T00:05:00.540Z,100344.94
2022-10-10T00:06:02.582Z,100336.66
2022-10-10T00:07:07.226Z,100335.03
2022-10-10T00:08:10.297Z,100338.69
2022-10-10T00:09:12.286Z,100340.22
2022-10-10T00:10:17.801Z,100343.44
2022-10-10T00:11:24.322Z,100339.84
2022-10-10T00:12:26.374Z,100339.00
2022-10-10T00:13:28.558Z,100335.06
2022-10-10T00:14:32.576Z,100331.84
2022-10-10T00:15:34.762Z,100339.38
2022-10-10T00:16:36.885Z,100339.06
2022-10-10T00:17:39.880Z,100336.91
2022-10-10T00:18:42.938Z,100340.91
2022-10-10T00:19:44.898Z,100340.91
2022-10-10T00:20:52.512Z,100348.41
2022-10-10T00:21:54.684Z,100344.06
2022-10-10T00:22:59.303Z,100344.94
2022-10-10T00:24:02.795Z,100339.81
2022-10-10T00:25:06.501Z,100347.34
2022-10-10T00:26:09.564Z,100346.53
2022-10-10T00:27:12.335Z,100344.50
2022-10-10T00:28:15.774Z,100343.25
2022-10-10T00:29:18.365Z,100343.31
2022-10-10T00:30:20.383Z,100346.94
2022-10-10T00:31:23.347Z,100344.97
2022-10-10T00:32:27.260Z,100351.69
2022-10-10T00:33:29.383Z,100353.31
2022-10-10T00:34:31.372Z,100361.63
2022-10-10T00:35:35.876Z,100355.59
2022-10-10T00:36:39.793Z,100364.69
2022-10-10T00:37:41.752Z,100361.53
2022-10-10T00:38:45.192Z,100358.00
2022-10-10T00:39:47.103Z,100359.09
2022-10-10T00:40:52.216Z,100365.41
2022-10-10T00:41:54.271Z,100369.41
2022-10-10T00:42:57.962Z,100371.41
2022-10-10T00:44:10.450Z,100370.22
2022-10-10T00:45:43.336Z,100365.47
2022-10-10T00:46:45.391Z,100370.66
2022-10-10T00:47:48.020Z,100377.44
2022-10-10T00:48:50.285Z,100371.00
2022-10-10T00:49:52.311Z,100371.31
2022-10-10T00:51:03.047Z,100379.28
2022-10-10T00:52:09.577Z,100380.09
2022-10-10T00:53:16.145Z,100379.72
2022-10-10T00:54:21.404Z,100378.19
2022-10-10T00:55:25.327Z,100376.63
2022-10-10T00:56:32.062Z,100380.09
2022-10-10T00:57:36.850Z,100380.88
2022-10-10T00:58:43.478Z,100375.75
2022-10-10T00:59:46.775Z,100370.22
2022-10-10T01:00:51.162Z,100371.78
2022-10-10T01:01:53.361Z,100374.91
2022-10-10T01:02:55.967Z,100370.88
2022-10-10T01:04:00.968Z,100371.25
2022-10-10T01:05:06.903Z,100378.09
2022-10-10T01:06:09.497Z,100373.38
2022-10-10T01:07:16.440Z,100369.41
2022-10-10T01:08:20.232Z,100376.63
2022-10-10T01:09:22.393Z,100370.31
2022-10-10T01:10:25.420Z,100379.03
2022-10-10T01:11:48.772Z,100378.13
2022-10-10T01:13:03.065Z,100374.53
2022-10-10T01:14:12.767Z,100382.09
2022-10-10T01:16:09.410Z,100379.66
2022-10-10T01:17:34.255Z,100387.44
2022-10-10T01:19:00.928Z,100379.13
2022-10-10T01:20:22.494Z,100385.94
2022-10-10T01:21:43.167Z,100394.69
2022-10-10T01:23:20.142Z,100399.41
2022-10-10T01:24:43.518Z,100390.75
2022-10-10T01:26:21.824Z,100407.38
2022-10-10T01:27:33.818Z,100401.91
2022-10-10T01:28:43.413Z,100409.44
2022-10-10T01:30:03.741Z,100408.44
2022-10-10T01:31:10.529Z,100415.69
2022-10-10T01:32:41.938Z,100407.34
2022-10-10T01:34:06.047Z,100414.94
2022-10-10T01:35:22.177Z,100415.31
2022-10-10T01:36:59.512Z,100415.31
2022-10-10T01:38:13.688Z,100420.78
2022-10-10T01:39:26.610Z,100417.56
2022-10-10T01:40:41.415Z,100424.44
2022-10-10T01:41:50.991Z,100416.13
2022-10-10T01:43:02.901Z,100424.00
2022-10-10T01:44:05.716Z,100422.44
2022-10-10T01:45:08.384Z,100427.06
2022-10-10T01:46:16.584Z,100426.00
2022-10-10T01:47:19.507Z,100428.03
2022-10-10T01:48:30.752Z,100422.91
2022-10-10T01:49:35.748Z,100435.06
2022-10-10T01:51:14.038Z,100427.22
2022-10-10T01:52:30.619Z,100437.00
2022-10-10T01:54:01.135Z,100433.63
2022-10-10T01:55:09.765Z,100441.19
2022-10-10T01:56:40.914Z,100441.78
2022-10-10T01:57:48.603Z,100448.63
2022-10-10T01:59:21.291Z,100444.94
2022-10-10T02:00:24.341Z,100448.81
2022-10-10T02:01:44.281Z,100455.66
2022-10-10T02:03:13.074Z,100461.63
2022-10-10T02:04:32.744Z,100457.81
2022-10-10T02:05:57.651Z,100465.50
2022-10-10T02:07:17.803Z,100469.44
2022-10-10T02:08:31.773Z,100477.34
2022-10-10T02:09:41.087Z,100473.44
2022-10-10T02:10:53.100Z,100471.78
2022-10-10T02:11:57.144Z,100471.75
2022-10-10T02:13:04.877Z,100476.50
2022-10-10T02:14:15.026Z,100480.53
2022-10-10T02:15:22.295Z,100475.38
2022-10-10T02:16:32.103Z,100480.19
2022-10-10T02:17:38.505Z,100475.41
2022-10-10T02:18:45.610Z,100483.69
2022-10-10T02:19:54.247Z,100484.47
2022-10-10T02:20:56.680Z,100484.28
2022-10-10T02:22:00.574Z,100482.47
2022-10-10T02:23:03.562Z,100489.22
2022-10-10T02:24:08.231Z,100483.72
2022-10-10T02:25:10.900Z,100489.50
2022-10-10T02:26:18.597Z,100493.13
2022-10-10T02:27:35.664Z,100494.66
2022-10-10T02:29:02.050Z,100491.53
2022-10-10T02:30:07.089Z,100491.84
2022-10-10T02:31:19.133Z,100493.13
2022-10-10T02:32:34.741Z,100491.53
2022-10-10T02:34:00.667Z,100493.13
2022-10-10T02:35:10.379Z,100496.41
2022-10-10T02:36:14.926Z,100492.03
2022-10-10T02:37:17.583Z,100496.41
2022-10-10T02:38:20.392Z,100496.28
2022-10-10T02:39:27.018Z,100494.25
2022-10-10T02:40:31.810Z,100498.91
2022-10-10T02:41:37.442Z,100496.13
2022-10-10T02:42:40.575Z,100496.31
2022-10-10T02:43:42.959Z,100489.09
2022-10-10T02:44:46.499Z,100496.97
2022-10-10T02:45:48.519Z,100495.75
2022-10-10T02:46:50.522Z,100495.94
2022-10-10T02:47:57.304Z,100494.97
2022-10-10T02:49:01.920Z,100501.66
2022-10-10T02:50:04.117Z,100500.50
2022-10-10T02:51:07.119Z,100504.19
2022-10-10T02:52:11.307Z,100510.56
2022-10-10T02:53:16.016Z,100503.03
2022-10-10T02:54:17.991Z,100507.72
2022-10-10T02:55:20.801Z,100512.13
2022-10-10T02:56:22.834Z,100510.47
2022-10-10T02:57:24.828Z,100509.22
2022-10-10T02:58:26.832Z,100517.53
2022-10-10T02:59:28.760Z,100511.38
2022-10-10T03:00:30.769Z,100516.91
2022-10-10T03:01:33.352Z,100524.44
2022-10-10T03:02:35.531Z,100525.59
2022-10-10T03:03:37.575Z,100523.50
2022-10-10T03:04:39.769Z,100520.56
2022-10-10T03:05:46.905Z,100524.78
2022-10-10T03:06:50.331Z,100525.66
2022-10-10T03:07:52.323Z,100523.19
2022-10-10T03:08:54.422Z,100524.00
2022-10-10T03:09:57.263Z,100518.69
2022-10-10T03:11:01.427Z,100524.03
2022-10-10T03:12:04.135Z,100526.59
2022-10-10T03:13:06.157Z,100528.31
2022-10-10T03:14:08.136Z,100520.34
2022-10-10T03:15:11.903Z,100526.72
2022-10-10T03:16:14.297Z,100533.78
2022-10-10T03:17:16.322Z,100521.84
2022-10-10T03:18:18.701Z,100526.88
2022-10-10T03:19:20.825Z,100530.59
2022-10-10T03:20:25.463Z,100536.22
2022-10-10T03:21:27.951Z,100529.91
2022-10-10T03:22:30.722Z,100532.97
2022-10-10T03:23:35.579Z,100536.94
2022-10-10T03:24:39.983Z,100530.53
2022-10-10T03:25:43.755Z,100535.75
2022-10-10T03:26:45.804Z,100530.84
2022-10-10T03:27:48.638Z,100526.59
2022-10-10T03:28:50.692Z,100543.59
2022-10-10T03:29:52.839Z,100540.75
2022-10-10T03:30:55.246Z,100536.84
2022-10-10T03:31:57.533Z,100541.56
2022-10-10T03:32:59.564Z,100542.56
2022-10-10T03:34:01.822Z,100541.34
2022-10-10T03:35:06.604Z,100548.09
2022-10-10T03:36:08.634Z,100542.47
2022-10-10T03:37:10.588Z,100542.47
2022-10-10T03:38:13.488Z,100539.38
2022-10-10T03:39:15.752Z,100553.78
2022-10-10T03:40:18.030Z,100540.47
2022-10-10T03:41:19.958Z,100552.78
2022-10-10T03:42:24.089Z,100549.09
2022-10-10T03:43:26.086Z,100548.78
2022-10-10T03:44:28.025Z,100555.97
2022-10-10T03:45:30.990Z,100554.75
2022-10-10T03:46:34.534Z,100555.22
2022-10-10T03:47:36.645Z,100554.81
2022-10-10T03:48:40.134Z,100566.72
2022-10-10T03:49:44.104Z,100557.19
2022-10-10T03:50:47.283Z,100562.34
2022-10-10T03:51:50.303Z,100560.75
2022-10-10T03:52:53.849Z,100566.72
2022-10-10T03:53:57.079Z,100571.53
2022-10-10T03:55:00.690Z,100576.31
2022-10-10T03:56:04.912Z,100572.25
2022-10-10T03:57:07.034Z,100572.31
2022-10-10T03:58:10.965Z,100581.13
2022-10-10T03:59:13.124Z,100580.41
2022-10-10T04:00:15.329Z,100573.22
2022-10-10T04:01:18.470Z,100578.69
2022-10-10T04:02:20.603Z,100576.44
2022-10-10T04:03:23.290Z,100578.75
2022-10-10T04:04:25.438Z,100576.63
2022-10-10T04:05:27.587Z,100583.38
2022-10-10T04:06:30.241Z,100584.22
2022-10-10T04:07:32.771Z,100594.47
2022-10-10T04:08:35.918Z,100603.59
2022-10-10T04:09:37.880Z,100592.59
2022-10-10T04:10:42.326Z,100589.53
2022-10-10T04:11:44.498Z,100595.81
2022-10-10T04:12:46.513Z,100598.06
2022-10-10T04:13:48.546Z,100602.31
2022-10-10T04:14:50.722Z,100595.56
2022-10-10T04:16:00.097Z,100595.88
2022-10-10T04:17:04.650Z,100597.47
2022-10-10T04:18:06.725Z,100602.19
2022-10-10T04:19:08.892Z,100602.25
2022-10-10T04:20:13.426Z,100593.44
2022-10-10T04:21:18.082Z,100603.66
2022-10-10T04:22:22.142Z,100608.38
2022-10-10T04:23:25.257Z,100604.50
2022-10-10T04:24:27.290Z,100605.22
2022-10-10T04:25:31.598Z,100600.50
2022-10-10T04:26:33.759Z,100607.72
2022-10-10T04:27:35.741Z,100609.66
2022-10-10T04:28:38.096Z,100609.28
2022-10-10T04:29:40.285Z,100621.09
2022-10-10T04:30:43.237Z,100611.63
2022-10-10T04:31:45.333Z,100608.13
2022-10-10T04:32:47.733Z,100614.75
2022-10-10T04:33:50.536Z,100612.50
2022-10-10T04:34:52.549Z,100617.78
2022-10-10T04:35:54.506Z,100617.31
2022-10-10T04:36:56.568Z,100616.41
2022-10-10T04:37:58.876Z,100623.69
2022-10-10T04:39:00.928Z,100627.09
2022-10-10T04:40:03.977Z,100620.28
2022-10-10T04:41:06.380Z,100615.19
2022-10-10T04:42:08.978Z,100616.66
2022-10-10T04:43:11.992Z,100632.56
2022-10-10T04:44:15.036Z,100634.31
2022-10-10T04:45:17.081Z,100635.47
2022-10-10T04:46:20.629Z,100641.00
2022-10-10T04:47:23.264Z,100641.84
2022-10-10T04:48:25.531Z,100640.34
2022-10-10T04:49:35.125Z,100640.72
2022-10-10T04:50:37.321Z,100644.28
2022-10-10T04:51:39.344Z,100641.13
2022-10-10T04:52:41.968Z,100639.78
2022-10-10T04:53:48.109Z,100642.63
2022-10-10T04:54:52.201Z,100650.66
2022-10-10T04:55:54.332Z,100657.75
2022-10-10T04:56:56.324Z,100649.09
2022-10-10T04:58:01.198Z,100654.56
2022-10-10T04:59:03.301Z,100652.97
2022-10-10T05:00:06.867Z,100660.09
2022-10-10T05:01:11.142Z,100661.72
2022-10-10T05:02:13.410Z,100662.00
2022-10-10T05:03:16.288Z,100662.00
2022-10-10T05:04:21.995Z,100665.91
2022-10-10T05:05:24.040Z,100666.66
2022-10-10T05:06:26.073Z,100667.03
2022-10-10T05:07:28.715Z,100670.66
2022-10-10T05:08:31.181Z,100677.50
2022-10-10T05:09:35.950Z,100679.16
2022-10-10T05:10:40.553Z,100670.03
2022-10-10T05:11:42.608Z,100676.03
2022-10-10T05:12:44.755Z,100672.66
2022-10-10T05:13:47.278Z,100677.69
2022-10-10T05:14:49.484Z,100668.47
2022-10-10T05:15:52.736Z,100677.00
2022-10-10T05:16:55.257Z,100671.03
2022-10-10T05:17:57.397Z,100678.06
2022-10-10T05:18:59.444Z,100674.09
2022-10-10T05:20:01.424Z,100672.88
2022-10-10T05:21:07.597Z,100672.88
2022-10-10T05:22:09.909Z,100678.06
2022-10-10T05:23:11.906Z,100676.66
2022-10-10T05:24:15.065Z,100677.88
2022-10-10T05:25:20.707Z,100677.88
2022-10-10T05:26:22.952Z,100674.84
2022-10-10T05:27:25.277Z,100679.75
2022-10-10T05:28:32.235Z,100687.75
2022-10-10T05:29:35.694Z,100680.50
2022-10-10T05:30:37.968Z,100681.72
2022-10-10T05:31:39.925Z,100682.38
2022-10-10T05:32:45.665Z,100681.94
2022-10-10T05:33:47.997Z,100680.53
2022-10-10T05:34:50.251Z,100674.13
2022-10-10T05:35:53.745Z,100670.31
2022-10-10T05:36:56.996Z,100680.22
2022-10-10T05:37:59.223Z,100679.41
2022-10-10T05:39:02.626Z,100688.28
2022-10-10T05:40:05.704Z,100680.88
2022-10-10T05:41:08.846Z,100685.31
2022-10-10T05:42:14.079Z,100681.19
2022-10-10T05:43:16.200Z,100690.06
2022-10-10T05:44:18.221Z,100690.25
2022-10-10T05:45:20.283Z,100685.97
2022-10-10T05:46:24.823Z,100691.56
2022-10-10T05:47:28.023Z,100693.91
2022-10-10T05:48:30.662Z,100684.47
2022-10-10T05:49:32.985Z,100690.56
2022-10-10T05:50:38.966Z,100686.84
2022-10-10T05:51:40.993Z,100698.63
2022-10-10T05:52:43.372Z,100693.13
2022-10-10T05:53:45.522Z,100690.28
2022-10-10T05:54:47.761Z,100692.69
2022-10-10T05:55:50.115Z,100700.16
2022-10-10T05:56:52.537Z,100699.09
2022-10-10T05:57:59.203Z,100699.81
2022-10-10T05:59:01.773Z,100701.06
2022-10-10T06:00:04.298Z,100705.97
2022-10-10T06:01:08.102Z,100703.72
2022-10-10T06:02:11.967Z,100697.84
2022-10-10T06:03:17.906Z,100702.28
2022-10-10T06:04:19.887Z,100706.78
2022-10-10T06:05:22.899Z,100710.84
2022-10-10T06:06:26.362Z,100707.44
2022-10-10T06:07:45.506Z,100711.25
2022-10-10T06:08:50.803Z,100713.22
2022-10-10T06:09:52.850Z,100716.38
2022-10-10T06:10:54.898Z,100712.59
2022-10-10T06:11:57.528Z,100714.16
2022-10-10T06:12:59.608Z,100710.25
2022-10-10T06:14:01.781Z,100716.56
2022-10-10T06:15:06.489Z,100720.31
2022-10-10T06:16:10.447Z,100720.44
2022-10-10T06:17:12.729Z,100719.09
2022-10-10T06:18:17.372Z,100723.81
2022-10-10T06:19:19.422Z,100723.16
2022-10-10T06:20:21.636Z,100730.72
2022-10-10T06:21:24.142Z,100735.91
2022-10-10T06:22:27.816Z,100729.38
2022-10-10T06:23:31.331Z,100725.50
2022-10-10T06:24:33.863Z,100726.94
2022-10-10T06:25:41.549Z,100736.31
2022-10-10T06:26:44.064Z,100738.41
2022-10-10T06:27:46.114Z,100739.56
2022-10-10T06:28:50.905Z,100736.69
2022-10-10T06:29:53.293Z,100736.16
2022-10-10T06:31:01.075Z,100737.84
2022-10-10T06:32:03.044Z,100746.16
2022-10-10T06:33:07.698Z,100742.63
2022-10-10T06:34:09.969Z,100738.78
2022-10-10T06:35:12.104Z,100736.72
2022-10-10T06:36:15.566Z,100728.34
2022-10-10T06:37:19.185Z,100732.72
2022-10-10T06:38:21.718Z,100733.09
2022-10-10T06:39:26.507Z,100735.41
2022-10-10T06:40:28.578Z,100739.94
2022-10-10T06:41:33.210Z,100741.81
2022-10-10T06:42:35.471Z,100738.16
2022-10-10T06:43:38.826Z,100741.06
2022-10-10T06:44:40.844Z,100739.56
2022-10-10T06:45:46.035Z,100731.69
2022-10-10T06:46:48.002Z,100743.81
2022-10-10T06:47:50.149Z,100745.75
2022-10-10T06:48:52.130Z,100735.91
2022-10-10T06:49:54.126Z,100742.09
2022-10-10T06:51:07.373Z,100745.94
2022-10-10T06:52:09.423Z,100738.22
2022-10-10T06:53:11.524Z,100742.03
2022-10-10T06:54:13.708Z,100743.84
2022-10-10T06:55:15.680Z,100738.50
2022-10-10T06:56:26.290Z,100732.16
2022-10-10T06:57:29.697Z,100738.78
2022-10-10T06:58:32.755Z,100747.31
2022-10-10T06:59:35.427Z,100743.34
2022-10-10T07:00:37.619Z,100751.00
2022-10-10T07:01:40.713Z,100755.06
2022-10-10T07:02:42.884Z,100744.69
2022-10-10T07:03:45.123Z,100747.97
2022-10-10T07:04:47.195Z,100747.53
2022-10-10T07:05:51.162Z,100731.47
2022-10-10T07:06:53.283Z,100744.97
2022-10-10T07:07:55.397Z,100747.75
2022-10-10T07:08:58.353Z,100747.28
2022-10-10T07:10:00.342Z,100747.66
2022-10-10T07:11:03.218Z,100747.09
2022-10-10T07:12:05.498Z,100741.19
2022-10-10T07:13:09.916Z,100747.66
2022-10-10T07:14:14.878Z,100747.19
2022-10-10T07:15:18.380Z,100754.16
2022-10-10T07:16:23.405Z,100757.88
2022-10-10T07:17:25.787Z,100744.50
2022-10-10T07:18:28.552Z,100747.75
2022-10-10T07:19:30.567Z,100742.28
2022-10-10T07:20:33.596Z,100745.44
2022-10-10T07:21:36.252Z,100747.38
2022-10-10T07:22:38.223Z,100743.88
2022-10-10T07:23:41.119Z,100744.19
2022-10-10T07:24:43.316Z,100748.16
2022-10-10T07:25:45.418Z,100751.78
2022-10-10T07:26:47.622Z,100744.44
2022-10-10T07:27:51.285Z,100742.69
2022-10-10T07:28:53.222Z,100738.44
2022-10-10T07:29:55.426Z,100750.38
2022-10-10T07:31:06.287Z,100744.91
2022-10-10T07:32:09.597Z,100747.94
2022-10-10T07:33:13.585Z,100739.00
2022-10-10T07:34:15.606Z,100749.09
2022-10-10T07:35:18.000Z,100743.00
2022-10-10T07:36:20.693Z,100745.00
2022-10-10T07:37:23.188Z,100743.78
2022-10-10T07:38:26.422Z,100743.50
2022-10-10T07:39:28.554Z,100736.31
2022-10-10T07:40:30.640Z,100748.22
2022-10-10T07:41:33.206Z,100750.50
2022-10-10T07:42:36.075Z,100746.91
2022-10-10T07:43:38.454Z,100747.75
2022-10-10T07:44:40.588Z,100746.59
2022-10-10T07:45:42.573Z,100750.81
2022-10-10T07:46:46.328Z,100742.47
2022-10-10T07:47:48.548Z,100757.31
2022-10-10T07:48:50.961Z,100751.78
2022-10-10T07:49:53.005Z,100748.19
2022-10-10T07:50:55.342Z,100740.97
2022-10-10T07:52:00.601Z,100746.28
2022-10-10T07:53:03.523Z,100750.28
2022-10-10T07:54:05.883Z,100755.75
2022-10-10T07:55:08.960Z,100751.25
2022-10-10T07:56:11.853Z,100748.09
2022-10-10T07:57:13.875Z,100764.50
2022-10-10T07:58:16.103Z,100751.03
2022-10-10T07:59:18.264Z,100756.50
2022-10-10T08:00:20.790Z,100748.69
2022-10-10T08:01:23.761Z,100750.25
2022-10-10T08:02:26.126Z,100741.41
2022-10-10T08:03:28.185Z,100754.00
2022-10-10T08:04:30.204Z,100754.03
2022-10-10T08:05:32.252Z,100749.19
2022-10-10T08:06:34.238Z,100749.34
2022-10-10T08:07:36.339Z,100757.38
2022-10-10T08:08:47.115Z,100760.16
2022-10-10T08:09:52.450Z,100749.91
2022-10-10T08:10:54.375Z,100750.19
2022-10-10T08:11:56.893Z,100758.47
2022-10-10T08:13:00.238Z,100750.94
2022-10-10T08:14:02.302Z,100753.97
2022-10-10T08:15:06.104Z,100750.13
2022-10-10T08:16:10.405Z,100754.03
2022-10-10T08:17:12.604Z,100750.53
2022-10-10T08:18:14.915Z,100749.63
2022-10-10T08:19:16.963Z,100749.09
2022-10-10T08:20:19.290Z,100748.66
2022-10-10T08:21:21.538Z,100741.34
2022-10-10T08:22:23.685Z,100753.84
2022-10-10T08:23:25.873Z,100750.69
2022-10-10T08:24:27.887Z,100749.78
2022-10-10T08:25:30.160Z,100755.78
2022-10-10T08:26:32.305Z,100754.91
2022-10-10T08:27:34.475Z,100752.97
2022-10-10T08:28:38.480Z,100755.09
2022-10-10T08:29:40.727Z,100752.50
2022-10-10T08:30:42.897Z,100747.78
2022-10-10T08:31:47.018Z,100755.72
2022-10-10T08:32:50.068Z,100750.94
2022-10-10T08:33:53.039Z,100750.38
2022-10-10T08:34:55.154Z,100748.88
2022-10-10T08:35:57.121Z,100755.66
2022-10-10T08:36:59.523Z,100745.88
2022-10-10T08:38:01.504Z,100746.25
2022-10-10T08:39:04.308Z,100747.22
2022-10-10T08:40:07.287Z,100746.69
2022-10-10T08:41:30.832Z,100753.06
2022-10-10T08:42:51.788Z,100754.56
2022-10-10T08:44:25.479Z,100749.50
2022-10-10T08:45:29.408Z,100757.25
2022-10-10T08:46:39.502Z,100754.63
2022-10-10T08:47:56.551Z,100752.34
2022-10-10T08:49:14.224Z,100756.34
2022-10-10T08:50:23.565Z,100757.81
2022-10-10T08:51:31.796Z,100758.94
2022-10-10T08:52:45.350Z,100762.66
2022-10-10T08:53:55.288Z,100756.91
2022-10-10T08:55:01.758Z,100761.78
2022-10-10T08:56:08.206Z,100758.66
2022-10-10T08:57:26.102Z,100757.06
2022-10-10T08:58:33.070Z,100757.53
2022-10-10T08:59:40.157Z,100761.16
2022-10-10T09:00:49.416Z,100747.97
2022-10-10T09:02:18.801Z,100759.84
2022-10-10T09:03:45.666Z,100761.28
2022-10-10T09:04:50.321Z,100760.97
2022-10-10T09:06:01.423Z,100766.31
2022-10-10T09:07:22.833Z,100762.38
2022-10-10T09:08:39.836Z,100764.81
2022-10-10T09:09:53.861Z,100764.84
2022-10-10T09:11:01.287Z,100760.06
2022-10-10T09:12:31.062Z,100768.09
2022-10-10T09:13:36.073Z,100767.19
2022-10-10T09:14:45.148Z,100772.97
2022-10-10T09:15:59.963Z,100771.78
2022-10-10T09:17:17.390Z,100765.41
2022-10-10T09:18:30.647Z,100762.59
2022-10-10T09:19:55.447Z,100769.38
2022-10-10T09:21:08.414Z,100771.75
2022-10-10T09:22:19.427Z,100764.59
2022-10-10T09:24:03.135Z,100769.00
2022-10-10T09:25:16.216Z,100770.56
2022-10-10T09:26:27.854Z,100766.13
2022-10-10T09:27:35.863Z,100774.06
2022-10-10T09:28:49.682Z,100770.91
2022-10-10T09:30:20.883Z,100774.94
2022-10-10T09:31:43.286Z,100781.34
2022-10-10T09:32:56.378Z,100768.59
2022-10-10T09:34:14.828Z,100770.59
2022-10-10T09:35:24.438Z,100767.00
2022-10-10T09:36:34.229Z,100775.75
2022-10-10T09:37:47.839Z,100779.72
2022-10-10T09:38:59.453Z,100780.94
2022-10-10T09:40:04.636Z,100774.56
2022-10-10T09:41:11.722Z,100777.34
2022-10-10T09:42:22.485Z,100774.91
2022-10-10T09:43:31.874Z,100786.91
2022-10-10T09:44:34.892Z,100784.00
2022-10-10T09:45:44.518Z,100783.69
2022-10-10T09:46:46.784Z,100778.94
2022-10-10T09:47:53.656Z,100787.59
2022-10-10T09:48:55.831Z,100774.91
2022-10-10T09:49:59.417Z,100778.06
2022-10-10T09:51:04.804Z,100780.91
2022-10-10T09:52:30.494Z,100781.19
2022-10-10T09:53:32.776Z,100781.88
2022-10-10T09:54:34.863Z,100781.47
2022-10-10T09:55:41.905Z,100780.31
2022-10-10T09:56:53.660Z,100786.69
2022-10-10T09:58:01.197Z,100790.69
2022-10-10T09:59:04.246Z,100787.78
2022-10-10T10:00:19.385Z,100779.41
2022-10-10T10:01:30.188Z,100778.59
2022-10-10T10:02:32.307Z,100790.50
2022-10-10T10:03:35.997Z,100784.78
2022-10-10T10:04:38.320Z,100784.28
2022-10-10T10:05:46.149Z,100780.75
2022-10-10T10:06:52.111Z,100773.94
2022-10-10T10:07:57.105Z,100779.09
2022-10-10T10:09:06.475Z,100788.16
2022-10-10T10:10:28.302Z,100784.59
2022-10-10T10:11:40.807Z,100783.91
2022-10-10T10:12:45.785Z,100789.34
2022-10-10T10:13:55.761Z,100774.31
2022-10-10T10:15:02.687Z,100768.84
2022-10-10T10:16:14.786Z,100769.72
2022-10-10T10:17:21.508Z,100780.09
2022-10-10T10:18:28.730Z,100781.75
2022-10-10T10:19:30.746Z,100784.53
2022-10-10T10:20:37.596Z,100777.72
2022-10-10T10:21:51.820Z,100779.31
2022-10-10T10:22:54.032Z,100780.91
2022-10-10T10:24:02.780Z,100782.50
2022-10-10T10:25:32.799Z,100783.72
2022-10-10T10:26:45.102Z,100774.56
2022-10-10T10:27:47.485Z,100773.75
2022-10-10T10:28:51.422Z,100778.13
2022-10-10T10:29:58.801Z,100781.69
2022-10-10T10:31:01.242Z,100764.13
2022-10-10T10:32:12.543Z,100773.69
2022-10-10T10:33:31.696Z,100768.91
2022-10-10T10:35:15.668Z,100779.69
2022-10-10T10:36:37.592Z,100768.13
2022-10-10T10:38:01.184Z,100774.06
2022-10-10T10:39:25.932Z,100764.53
2022-10-10T10:41:10.337Z,100779.22
2022-10-10T10:42:24.726Z,100764.97
2022-10-10T10:43:46.407Z,100767.78
2022-10-10T10:45:09.601Z,100761.00
2022-10-10T10:46:36.490Z,100758.47
2022-10-10T10:47:47.843Z,100762.50
2022-10-10T10:49:17.258Z,100769.69
2022-10-10T10:50:52.943Z,100768.38
2022-10-10T10:52:16.208Z,100768.00
2022-10-10T10:53:53.724Z,100767.34
2022-10-10T10:55:14.589Z,100766.41
2022-10-10T10:56:48.988Z,100771.59
2022-10-10T10:58:22.430Z,100766.34
2022-10-10T11:00:20.583Z,100764.16
2022-10-10T11:01:44.885Z,100771.63
2022-10-10T11:03:27.673Z,100774.75
2022-10-10T11:05:18.127Z,100772.06
2022-10-10T11:06:12.213Z,100771.28
2022-10-10T11:07:26.522Z,100768.91
2022-10-10T11:08:36.111Z,100767.38
2022-10-10T11:09:50.046Z,100778.50
2022-10-10T11:11:01.527Z,100771.63
2022-10-10T11:12:17.373Z,100780.13
2022-10-10T11:13:24.801Z,100776.69
2022-10-10T11:14:37.153Z,100781.91
2022-10-10T11:16:05.518Z,100776.34
2022-10-10T11:17:37.143Z,100776.66
2022-10-10T11:18:49.179Z,100770.28
2022-10-10T11:20:03.171Z,100774.31
2022-10-10T11:21:14.624Z,100772.75
2022-10-10T11:22:22.837Z,100769.13
2022-10-10T11:23:42.694Z,100774.34
2022-10-10T11:25:13.390Z,100769.94
2022-10-10T11:26:25.014Z,100766.03
2022-10-10T11:27:30.208Z,100765.53
2022-10-10T11:28:49.642Z,100765.09
2022-10-10T11:30:07.919Z,100772.75
2022-10-10T11:31:42.835Z,100770.34
2022-10-10T11:33:05.907Z,100780.25
2022-10-10T11:34:20.992Z,100773.06
2022-10-10T11:35:35.490Z,100771.84
2022-10-10T11:36:47.423Z,100775.69
2022-10-10T11:37:56.083Z,100767.34
2022-10-10T11:39:15.345Z,100770.09
2022-10-10T11:40:32.774Z,100784.41
2022-10-10T11:41:45.181Z,100781.94
2022-10-10T11:42:55.366Z,100776.06
2022-10-10T11:44:19.662Z,100772.47
2022-10-10T11:45:45.343Z,100768.47
2022-10-10T11:47:14.648Z,100774.03
2022-10-10T11:48:43.611Z,100771.19
2022-10-10T11:49:59.236Z,100769.28
2022-10-10T11:51:15.423Z,100773.28
2022-10-10T11:53:00.601Z,100783.59
2022-10-10T11:54:12.525Z,100775.25
2022-10-10T11:56:04.364Z,100774.06
2022-10-10T11:57:30.462Z,100774.47
2022-10-10T11:58:51.259Z,100778.88
2022-10-10T12:00:00.810Z,100779.66
2022-10-10T12:01:31.522Z,100785.88
2022-10-10T12:02:37.285Z,100783.59
2022-10-10T12:03:39.493Z,100774.00
2022-10-10T12:04:41.715Z,100773.28
2022-10-10T12:06:03.587Z,100782.78
2022-10-10T12:07:18.257Z,100780.38
2022-10-10T12:08:26.310Z,100782.03
2022-10-10T12:09:36.773Z,100778.75
2022-10-10T12:10:46.708Z,100783.59
2022-10-10T12:11:59.862Z,100776.41
2022-10-10T12:14:02.626Z,100780.38
2022-10-10T12:15:13.543Z,100781.06
2022-10-10T12:16:20.491Z,100773.13
2022-10-10T12:17:32.820Z,100781.06
2022-10-10T12:18:41.110Z,100783.59
2022-10-10T12:19:44.304Z,100780.72
2022-10-10T12:21:03.079Z,100786.59
2022-10-10T12:22:08.518Z,100784.94
2022-10-10T12:23:14.871Z,100777.00
2022-10-10T12:24:16.989Z,100787.34
2022-10-10T12:25:44.754Z,100789.00
2022-10-10T12:26:55.779Z,100789.78
2022-10-10T12:28:17.286Z,100781.03
2022-10-10T12:29:40.729Z,100783.38
2022-10-10T12:30:58.221Z,100779.78
2022-10-10T12:32:17.594Z,100782.59
2022-10-10T12:33:20.441Z,100782.56
2022-10-10T12:34:50.366Z,100792.41
2022-10-10T12:35:54.388Z,100795.97
2022-10-10T12:37:10.587Z,100794.38
2022-10-10T12:38:15.572Z,100793.56
2022-10-10T12:39:17.947Z,100794.44
2022-10-10T12:40:21.819Z,100796.03
2022-10-10T12:41:47.665Z,100796.03
2022-10-10T12:42:57.090Z,100798.00
2022-10-10T12:44:25.013Z,100798.34
2022-10-10T12:45:31.781Z,100800.00
2022-10-10T12:46:35.354Z,100804.75
2022-10-10T12:48:04.480Z,100796.66
2022-10-10T12:49:24.301Z,100789.50
2022-10-10T12:50:29.888Z,100796.66
2022-10-10T12:51:37.119Z,100801.44
2022-10-10T12:53:00.927Z,100791.50
2022-10-10T12:54:05.326Z,100792.19
2022-10-10T12:55:21.671Z,100791.09
2022-10-10T12:56:40.166Z,100791.41
2022-10-10T12:57:45.574Z,100792.63